EBLG METAR and TAF | Updated Today

EBLG METAR

Liège Airport

Observation time: 27:20 hr. ago

EBLG 281820Z 15006KT 130V190 9999 FEW035 09/07 Q0999 NOSIG

Need help? Read our tutorial on how to read METARs or read the parsed version below.

Liège Airport (EBLG) METAR

  • Weather conditions on Wed, 28 Sep 2022 18:20:00 +0000 (27:20 hr. ago):
  • Present conditions: Dry
  • Clouds: A few at 1067 meters
  • Visibility: Greater than 10 km
  • Wind: 150 degrees at 6 knots
  • Temperature: 9 celsius
  • Dew point: 7 celsius
  • Pressure: 999 millibars
  • Remarks: None


Useful to know...

EBLG TAF

Liège Airport

TAF EBLG 281706Z 2818/2924 21004KT 9999 SCT030 TEMPO 2902/2908 3500 BR PROB30 2904/2907 1200 BCFG
Observation time: 28:34 hr. ago
Need help? Read our tutorial on how to read TAFs or read the parsed version below.

Parsed version of TAF for Liège Airport (EBLG)

  • From 28 September at 18:00 UTC, to day 29 of the month at 24:00 UTC
  • Clouds: Scattered at 914 meters
  • Visibility: Greater than 10 km
  • Wind: 210 degrees at 4
  • Expected to arise temporarily, from 29 September at 02:00 UTC, to day 29 of the month at 08:00 UTC
  • Visibility: 3500 meters
  • Other: Mist
  • From 29 September at 04:00 UTC, to day 29 of the month at 07:00 UTC
    Probability of 30%
  • Visibility: 1200 meters
  • Other: Patches of fog